sensor_id;sensor_type;location;lat;lon;timestamp;temperature;humidity
46898;DHT22;32646;50.958;6.258;2024-03-23T00:54:38;6.60;99.90
46898;DHT22;32646;50.958;6.258;2024-03-23T00:57:04;6.60;99.90
46898;DHT22;32646;50.958;6.258;2024-03-23T00:59:29;6.60;99.90
46898;DHT22;32646;50.958;6.258;2024-03-23T01:01:55;6.60;99.90
46898;DHT22;32646;50.958;6.258;2024-03-23T01:04:21;6.70;99.90
46898;DHT22;32646;50.958;6.258;2024-03-23T01:06:46;6.70;99.90
46898;DHT22;32646;50.958;6.258;2024-03-23T01:09:12;6.50;99.90
46898;DHT22;32646;50.958;6.258;2024-03-23T01:11:38;6.40;99.90
46898;DHT22;32646;50.958;6.258;2024-03-23T01:14:03;6.30;99.90
46898;DHT22;32646;50.958;6.258;2024-03-23T01:16:29;6.20;99.90
46898;DHT22;32646;50.958;6.258;2024-03-23T01:18:55;6.10;99.90
46898;DHT22;32646;50.958;6.258;2024-03-23T01:21:20;6.10;99.90
46898;DHT22;32646;50.958;6.258;2024-03-23T01:23:46;5.90;99.90
46898;DHT22;32646;50.958;6.258;2024-03-23T01:26:12;5.80;99.90
46898;DHT22;32646;50.958;6.258;2024-03-23T01:28:37;5.80;99.90
46898;DHT22;32646;50.958;6.258;2024-03-23T01:31:03;5.80;99.90
46898;DHT22;32646;50.958;6.258;2024-03-23T01:33:29;5.70;99.90
46898;DHT22;32646;50.958;6.258;2024-03-23T01:35:54;5.70;99.90
46898;DHT22;32646;50.958;6.258;2024-03-23T01:38:20;5.70;99.90
46898;DHT22;32646;50.958;6.258;2024-03-23T01:40:46;5.70;99.90
46898;DHT22;32646;50.958;6.258;2024-03-23T01:43:11;5.60;99.90
46898;DHT22;32646;50.958;6.258;2024-03-23T01:45:37;5.60;99.90
46898;DHT22;32646;50.958;6.258;2024-03-23T01:48:03;5.60;99.90
46898;DHT22;32646;50.958;6.258;2024-03-23T01:50:30;5.60;99.90
46898;DHT22;32646;50.958;6.258;2024-03-23T01:52:56;5.60;99.90
46898;DHT22;32646;50.958;6.258;2024-03-23T01:55:23;5.60;99.90
46898;DHT22;32646;50.958;6.258;2024-03-23T01:57:48;5.60;99.90
46898;DHT22;32646;50.958;6.258;2024-03-23T02:00:14;5.50;99.90
46898;DHT22;32646;50.958;6.258;2024-03-23T02:02:44;5.50;99.90
46898;DHT22;32646;50.958;6.258;2024-03-23T02:05:11;5.50;99.90
46898;DHT22;32646;50.958;6.258;2024-03-23T02:07:39;5.40;99.90
46898;DHT22;32646;50.958;6.258;2024-03-23T02:10:06;5.60;99.90
46898;DHT22;32646;50.958;6.258;2024-03-23T02:12:32;5.50;99.90
46898;DHT22;32646;50.958;6.258;2024-03-23T02:14:58;5.50;99.90
46898;DHT22;32646;50.958;6.258;2024-03-23T02:17:23;5.50;99.90
46898;DHT22;32646;50.958;6.258;2024-03-23T02:19:50;5.50;99.90
46898;DHT22;32646;50.958;6.258;2024-03-23T02:22:15;5.40;99.90
46898;DHT22;32646;50.958;6.258;2024-03-23T02:24:42;5.40;99.90
46898;DHT22;32646;50.958;6.258;2024-03-23T02:27:07;5.40;99.90
46898;DHT22;32646;50.958;6.258;2024-03-23T02:29:33;5.40;99.90
46898;DHT22;32646;50.958;6.258;2024-03-23T02:31:58;5.40;99.90
46898;DHT22;32646;50.958;6.258;2024-03-23T02:34:24;5.50;99.90
46898;DHT22;32646;50.958;6.258;2024-03-23T02:36:50;5.50;99.90
46898;DHT22;32646;50.958;6.258;2024-03-23T02:39:16;5.40;99.90
46898;DHT22;32646;50.958;6.258;2024-03-23T02:41:41;5.30;99.90
46898;DHT22;32646;50.958;6.258;2024-03-23T02:44:07;5.40;99.90
46898;DHT22;32646;50.958;6.258;2024-03-23T02:46:33;5.30;99.90
46898;DHT22;32646;50.958;6.258;2024-03-23T02:48:59;5.30;99.90
46898;DHT22;32646;50.958;6.258;2024-03-23T02:51:24;5.30;99.90
46898;DHT22;32646;50.958;6.258;2024-03-23T02:53:50;5.30;99.90
46898;DHT22;32646;50.958;6.258;2024-03-23T02:56:16;5.40;99.90
46898;DHT22;32646;50.958;6.258;2024-03-23T02:58:43;5.40;99.90
46898;DHT22;32646;50.958;6.258;2024-03-23T03:01:08;5.40;99.90
46898;DHT22;32646;50.958;6.258;2024-03-23T03:03:34;5.40;99.90
46898;DHT22;32646;50.958;6.258;2024-03-23T03:06:00;5.40;99.90
46898;DHT22;32646;50.958;6.258;2024-03-23T03:08:25;5.40;99.90
46898;DHT22;32646;50.958;6.258;2024-03-23T03:10:51;5.50;99.90
46898;DHT22;32646;50.958;6.258;2024-03-23T03:13:17;5.40;99.90
46898;DHT22;32646;50.958;6.258;2024-03-23T03:15:46;5.40;99.90
46898;DHT22;32646;50.958;6.258;2024-03-23T03:18:11;5.30;99.90
46898;DHT22;32646;50.958;6.258;2024-03-23T03:20:40;5.30;99.90
46898;DHT22;32646;50.958;6.258;2024-03-23T03:23:06;5.30;99.90
46898;DHT22;32646;50.958;6.258;2024-03-23T03:25:33;5.30;99.90
46898;DHT22;32646;50.958;6.258;2024-03-23T03:27:58;5.30;99.90
46898;DHT22;32646;50.958;6.258;2024-03-23T03:30:24;5.40;99.90
46898;DHT22;32646;50.958;6.258;2024-03-23T03:32:52;5.40;99.90
46898;DHT22;32646;50.958;6.258;2024-03-23T03:35:18;5.40;99.90
46898;DHT22;32646;50.958;6.258;2024-03-23T03:37:44;5.40;99.90
46898;DHT22;32646;50.958;6.258;2024-03-23T03:40:10;5.50;99.90
46898;DHT22;32646;50.958;6.258;2024-03-23T03:42:36;5.50;99.90
46898;DHT22;32646;50.958;6.258;2024-03-23T03:45:02;5.50;99.90
46898;DHT22;32646;50.958;6.258;2024-03-23T03:47:28;5.50;99.90
46898;DHT22;32646;50.958;6.258;2024-03-23T03:49:53;5.40;99.90
46898;DHT22;32646;50.958;6.258;2024-03-23T03:52:19;5.40;99.90
46898;DHT22;32646;50.958;6.258;2024-03-23T03:54:45;5.40;99.90
46898;DHT22;32646;50.958;6.258;2024-03-23T03:57:10;5.40;99.90
46898;DHT22;32646;50.958;6.258;2024-03-23T03:59:36;5.40;99.90
46898;DHT22;32646;50.958;6.258;2024-03-23T04:02:02;5.40;99.90
46898;DHT22;32646;50.958;6.258;2024-03-23T04:04:28;5.40;99.90
46898;DHT22;32646;50.958;6.258;2024-03-23T04:07:00;5.30;99.90
46898;DHT22;32646;50.958;6.258;2024-03-23T04:09:26;5.30;99.90
46898;DHT22;32646;50.958;6.258;2024-03-23T04:11:52;5.30;99.90
46898;DHT22;32646;50.958;6.258;2024-03-23T04:14:17;5.30;99.90
46898;DHT22;32646;50.958;6.258;2024-03-23T04:16:43;5.40;99.90
46898;DHT22;32646;50.958;6.258;2024-03-23T04:19:09;5.40;99.90
46898;DHT22;32646;50.958;6.258;2024-03-23T04:21:37;5.40;99.90
46898;DHT22;32646;50.958;6.258;2024-03-23T04:24:03;5.30;99.90
46898;DHT22;32646;50.958;6.258;2024-03-23T04:26:29;5.30;99.90
46898;DHT22;32646;50.958;6.258;2024-03-23T04:28:55;5.20;99.90
46898;DHT22;32646;50.958;6.258;2024-03-23T04:31:20;5.20;99.90
46898;DHT22;32646;50.958;6.258;2024-03-23T04:33:46;5.30;99.90
46898;DHT22;32646;50.958;6.258;2024-03-23T04:36:12;5.30;99.90
46898;DHT22;32646;50.958;6.258;2024-03-23T04:38:37;5.30;99.90
46898;DHT22;32646;50.958;6.258;2024-03-23T04:41:03;5.30;99.90
46898;DHT22;32646;50.958;6.258;2024-03-23T04:43:29;5.30;99.90
46898;DHT22;32646;50.958;6.258;2024-03-23T04:45:54;5.30;99.90
46898;DHT22;32646;50.958;6.258;2024-03-23T04:48:21;5.30;99.90
46898;DHT22;32646;50.958;6.258;2024-03-23T04:50:47;5.30;99.90
46898;DHT22;32646;50.958;6.258;2024-03-23T04:53:13;5.20;99.90
46898;DHT22;32646;50.958;6.258;2024-03-23T04:55:39;5.20;99.90
46898;DHT22;32646;50.958;6.258;2024-03-23T04:58:04;5.10;99.90
46898;DHT22;32646;50.958;6.258;2024-03-23T05:00:30;5.10;99.90
46898;DHT22;32646;50.958;6.258;2024-03-23T05:02:56;5.10;99.90
46898;DHT22;32646;50.958;6.258;2024-03-23T05:05:21;5.10;99.90
46898;DHT22;32646;50.958;6.258;2024-03-23T05:07:47;5.10;99.90
46898;DHT22;32646;50.958;6.258;2024-03-23T05:10:13;5.10;99.90
46898;DHT22;32646;50.958;6.258;2024-03-23T05:12:38;5.10;99.90
46898;DHT22;32646;50.958;6.258;2024-03-23T05:15:07;5.10;99.90
46898;DHT22;32646;50.958;6.258;2024-03-23T05:17:33;5.10;99.90
46898;DHT22;32646;50.958;6.258;2024-03-23T05:19:59;5.10;99.90
46898;DHT22;32646;50.958;6.258;2024-03-23T05:22:25;5.10;99.90
46898;DHT22;32646;50.958;6.258;2024-03-23T05:24:51;5.10;99.90
46898;DHT22;32646;50.958;6.258;2024-03-23T05:27:16;5.10;99.90
46898;DHT22;32646;50.958;6.258;2024-03-23T05:29:42;5.00;99.90
46898;DHT22;32646;50.958;6.258;2024-03-23T05:32:08;5.00;99.90
46898;DHT22;32646;50.958;6.258;2024-03-23T05:34:33;4.90;99.90
46898;DHT22;32646;50.958;6.258;2024-03-23T05:36:59;4.90;99.90
46898;DHT22;32646;50.958;6.258;2024-03-23T05:39:25;4.90;99.90
46898;DHT22;32646;50.958;6.258;2024-03-23T05:41:51;4.80;99.90
46898;DHT22;32646;50.958;6.258;2024-03-23T05:44:16;4.80;99.90
46898;DHT22;32646;50.958;6.258;2024-03-23T05:46:42;4.80;99.90
46898;DHT22;32646;50.958;6.258;2024-03-23T05:49:08;4.80;99.90
46898;DHT22;32646;50.958;6.258;2024-03-23T05:51:34;4.80;99.90
46898;DHT22;32646;50.958;6.258;2024-03-23T05:54:00;4.70;99.90
46898;DHT22;32646;50.958;6.258;2024-03-23T05:56:25;4.70;99.90
46898;DHT22;32646;50.958;6.258;2024-03-23T05:58:51;4.70;99.90
46898;DHT22;32646;50.958;6.258;2024-03-23T06:01:17;4.70;99.90
46898;DHT22;32646;50.958;6.258;2024-03-23T06:03:43;4.70;99.90
46898;DHT22;32646;50.958;6.258;2024-03-23T06:06:08;4.80;99.90
46898;DHT22;32646;50.958;6.258;2024-03-23T06:08:34;4.80;99.90
46898;DHT22;32646;50.958;6.258;2024-03-23T06:11:00;4.80;99.90
46898;DHT22;32646;50.958;6.258;2024-03-23T06:13:25;4.80;99.90
46898;DHT22;32646;50.958;6.258;2024-03-23T06:15:51;4.90;99.90
46898;DHT22;32646;50.958;6.258;2024-03-23T06:18:17;4.90;99.90
46898;DHT22;32646;50.958;6.258;2024-03-23T06:20:42;5.00;99.90
46898;DHT22;32646;50.958;6.258;2024-03-23T06:23:08;5.00;99.90
46898;DHT22;32646;50.958;6.258;2024-03-23T06:25:34;5.10;99.90
46898;DHT22;32646;50.958;6.258;2024-03-23T06:27:59;5.10;99.90
46898;DHT22;32646;50.958;6.258;2024-03-23T06:30:25;5.20;99.90
46898;DHT22;32646;50.958;6.258;2024-03-23T06:32:51;5.30;99.90
46898;DHT22;32646;50.958;6.258;2024-03-23T06:35:16;5.30;99.90
46898;DHT22;32646;50.958;6.258;2024-03-23T06:37:42;5.40;99.90
46898;DHT22;32646;50.958;6.258;2024-03-23T06:40:08;5.40;99.90
46898;DHT22;32646;50.958;6.258;2024-03-23T06:42:34;5.50;99.90
46898;DHT22;32646;50.958;6.258;2024-03-23T06:45:00;5.50;99.90
46898;DHT22;32646;50.958;6.258;2024-03-23T06:47:25;5.60;99.90
46898;DHT22;32646;50.958;6.258;2024-03-23T06:49:51;5.60;99.90
46898;DHT22;32646;50.958;6.258;2024-03-23T06:52:17;5.80;99.90
46898;DHT22;32646;50.958;6.258;2024-03-23T06:54:43;5.90;99.90
46898;DHT22;32646;50.958;6.258;2024-03-23T06:57:08;6.10;99.90
46898;DHT22;32646;50.958;6.258;2024-03-23T06:59:34;6.40;99.90
46898;DHT22;32646;50.958;6.258;2024-03-23T07:02:00;6.30;99.90
46898;DHT22;32646;50.958;6.258;2024-03-23T07:04:25;6.30;99.90
46898;DHT22;32646;50.958;6.258;2024-03-23T07:06:51;6.10;99.90
46898;DHT22;32646;50.958;6.258;2024-03-23T07:09:17;5.70;99.90
46898;DHT22;32646;50.958;6.258;2024-03-23T07:11:42;5.40;99.90
46898;DHT22;32646;50.958;6.258;2024-03-23T07:14:08;5.40;99.90
46898;DHT22;32646;50.958;6.258;2024-03-23T07:16:34;5.50;99.90
46898;DHT22;32646;50.958;6.258;2024-03-23T07:18:59;5.40;99.90
46898;DHT22;32646;50.958;6.258;2024-03-23T07:21:25;5.30;99.90
46898;DHT22;32646;50.958;6.258;2024-03-23T07:23:51;5.30;99.90
46898;DHT22;32646;50.958;6.258;2024-03-23T07:26:16;5.20;99.90
46898;DHT22;32646;50.958;6.258;2024-03-23T07:28:43;5.20;99.90
46898;DHT22;32646;50.958;6.258;2024-03-23T07:31:13;5.10;99.90
46898;DHT22;32646;50.958;6.258;2024-03-23T07:33:44;5.10;99.20
46898;DHT22;32646;50.958;6.258;2024-03-23T07:36:10;5.20;99.90
46898;DHT22;32646;50.958;6.258;2024-03-23T07:38:36;5.30;99.50
46898;DHT22;32646;50.958;6.258;2024-03-23T07:41:08;5.50;97.40
46898;DHT22;32646;50.958;6.258;2024-03-23T07:43:38;5.70;96.10
46898;DHT22;32646;50.958;6.258;2024-03-23T07:46:04;5.90;97.20
46898;DHT22;32646;50.958;6.258;2024-03-23T07:48:30;6.20;98.50
46898;DHT22;32646;50.958;6.258;2024-03-23T07:51:17;6.40;99.90
46898;DHT22;32646;50.958;6.258;2024-03-23T07:53:44;6.70;99.90
46898;DHT22;32646;50.958;6.258;2024-03-23T07:56:10;6.90;99.60
46898;DHT22;32646;50.958;6.258;2024-03-23T07:58:36;7.00;99.90
46898;DHT22;32646;50.958;6.258;2024-03-23T08:01:08;7.30;99.90
46898;DHT22;32646;50.958;6.258;2024-03-23T08:03:34;7.50;96.40
46898;DHT22;32646;50.958;6.258;2024-03-23T08:06:17;7.30;94.70
46898;DHT22;32646;50.958;6.258;2024-03-23T08:08:44;7.70;96.20
46898;DHT22;32646;50.958;6.258;2024-03-23T08:11:10;8.60;93.20
46898;DHT22;32646;50.958;6.258;2024-03-23T08:13:39;8.50;69.60
46898;DHT22;32646;50.958;6.258;2024-03-23T08:16:05;8.90;66.80
46898;DHT22;32646;50.958;6.258;2024-03-23T08:18:31;8.90;67.60
46898;DHT22;32646;50.958;6.258;2024-03-23T08:23:28;8.40;63.20
46898;DHT22;32646;50.958;6.258;2024-03-23T08:25:58;8.50;60.30
46898;DHT22;32646;50.958;6.258;2024-03-23T08:28:24;8.30;68.40
46898;DHT22;32646;50.958;6.258;2024-03-23T08:30:50;8.30;67.90
46898;DHT22;32646;50.958;6.258;2024-03-23T08:33:16;8.60;64.40
46898;DHT22;32646;50.958;6.258;2024-03-23T08:35:42;8.80;63.30
46898;DHT22;32646;50.958;6.258;2024-03-23T08:38:08;9.70;52.70
46898;DHT22;32646;50.958;6.258;2024-03-23T08:40:33;9.60;39.10
46898;DHT22;32646;50.958;6.258;2024-03-23T08:42:59;9.20;39.30
46898;DHT22;32646;50.958;6.258;2024-03-23T08:45:25;8.70;41.00
46898;DHT22;32646;50.958;6.258;2024-03-23T08:47:51;9.00;42.30
46898;DHT22;32646;50.958;6.258;2024-03-23T08:50:17;9.10;43.60
46898;DHT22;32646;50.958;6.258;2024-03-23T08:52:43;9.20;37.00
46898;DHT22;32646;50.958;6.258;2024-03-23T08:55:09;9.40;34.90
46898;DHT22;32646;50.958;6.258;2024-03-23T08:57:35;9.60;33.60
46898;DHT22;32646;50.958;6.258;2024-03-23T09:00:01;9.60;30.20
46898;DHT22;32646;50.958;6.258;2024-03-23T09:02:26;9.70;35.10
46898;DHT22;32646;50.958;6.258;2024-03-23T09:04:52;10.00;37.00
46898;DHT22;32646;50.958;6.258;2024-03-23T09:07:19;9.80;28.40
46898;DHT22;32646;50.958;6.258;2024-03-23T09:09:45;9.90;31.50
46898;DHT22;32646;50.958;6.258;2024-03-23T09:12:10;9.90;28.50
46898;DHT22;32646;50.958;6.258;2024-03-23T09:14:36;9.80;23.10
46898;DHT22;32646;50.958;6.258;2024-03-23T09:17:02;10.50;19.00
46898;DHT22;32646;50.958;6.258;2024-03-23T09:19:30;11.60;15.70
46898;DHT22;32646;50.958;6.258;2024-03-23T09:21:56;12.00;13.90
46898;DHT22;32646;50.958;6.258;2024-03-23T09:24:22;11.30;10.60
46898;DHT22;32646;50.958;6.258;2024-03-23T09:26:47;10.80;14.70
46898;DHT22;32646;50.958;6.258;2024-03-23T09:29:13;10.70;16.10
46898;DHT22;32646;50.958;6.258;2024-03-23T09:31:40;11.30;14.90
46898;DHT22;32646;50.958;6.258;2024-03-23T09:34:05;11.00;13.10
46898;DHT22;32646;50.958;6.258;2024-03-23T09:36:31;9.80;16.30
46898;DHT22;32646;50.958;6.258;2024-03-23T09:38:57;9.70;18.70
46898;DHT22;32646;50.958;6.258;2024-03-23T09:41:23;9.50;16.40
46898;DHT22;32646;50.958;6.258;2024-03-23T09:43:51;9.00;16.40
46898;DHT22;32646;50.958;6.258;2024-03-23T09:46:17;8.50;20.20
46898;DHT22;32646;50.958;6.258;2024-03-23T09:48:43;8.30;22.20
46898;DHT22;32646;50.958;6.258;2024-03-23T09:51:11;7.80;23.90
46898;DHT22;32646;50.958;6.258;2024-03-23T09:53:37;7.90;26.80
46898;DHT22;32646;50.958;6.258;2024-03-23T09:56:03;7.90;29.10
46898;DHT22;32646;50.958;6.258;2024-03-23T09:58:28;8.10;29.60
46898;DHT22;32646;50.958;6.258;2024-03-23T10:00:54;8.20;28.80
46898;DHT22;32646;50.958;6.258;2024-03-23T10:03:20;9.50;27.10
46898;DHT22;32646;50.958;6.258;2024-03-23T10:05:45;11.20;20.10
46898;DHT22;32646;50.958;6.258;2024-03-23T10:10:40;9.70;20.20
46898;DHT22;32646;50.958;6.258;2024-03-23T10:13:06;8.90;26.00
46898;DHT22;32646;50.958;6.258;2024-03-23T10:15:35;8.50;28.40
46898;DHT22;32646;50.958;6.258;2024-03-23T10:18:17;8.20;28.50
46898;DHT22;32646;50.958;6.258;2024-03-23T10:20:43;8.40;30.70
46898;DHT22;32646;50.958;6.258;2024-03-23T10:23:16;9.80;25.40
46898;DHT22;32646;50.958;6.258;2024-03-23T10:25:42;10.90;20.60
46898;DHT22;32646;50.958;6.258;2024-03-23T10:28:08;10.70;15.50
46898;DHT22;32646;50.958;6.258;2024-03-23T10:30:34;10.00;15.50
46898;DHT22;32646;50.958;6.258;2024-03-23T10:33:12;9.80;22.20
46898;DHT22;32646;50.958;6.258;2024-03-23T10:35:38;9.70;18.00
46898;DHT22;32646;50.958;6.258;2024-03-23T10:38:07;9.50;18.50
46898;DHT22;32646;50.958;6.258;2024-03-23T10:40:37;9.00;17.10
46898;DHT22;32646;50.958;6.258;2024-03-23T10:43:06;8.90;20.90
46898;DHT22;32646;50.958;6.258;2024-03-23T10:45:33;9.00;18.00
46898;DHT22;32646;50.958;6.258;2024-03-23T10:47:59;9.60;14.60
46898;DHT22;32646;50.958;6.258;2024-03-23T10:50:25;9.60;19.30
46898;DHT22;32646;50.958;6.258;2024-03-23T10:52:53;9.30;19.10
46898;DHT22;32646;50.958;6.258;2024-03-23T10:55:20;9.10;18.60
46898;DHT22;32646;50.958;6.258;2024-03-23T10:57:54;9.50;23.60
46898;DHT22;32646;50.958;6.258;2024-03-23T11:00:20;10.40;16.90
46898;DHT22;32646;50.958;6.258;2024-03-23T11:02:45;10.30;13.30
46898;DHT22;32646;50.958;6.258;2024-03-23T11:07:53;9.10;17.10
46898;DHT22;32646;50.958;6.258;2024-03-23T11:10:29;7.70;30.80
46898;DHT22;32646;50.958;6.258;2024-03-23T11:15:43;6.30;50.70
46898;DHT22;32646;50.958;6.258;2024-03-23T11:18:09;6.20;70.90
46898;DHT22;32646;50.958;6.258;2024-03-23T11:20:35;6.30;78.90
46898;DHT22;32646;50.958;6.258;2024-03-23T11:23:02;6.30;75.80
46898;DHT22;32646;50.958;6.258;2024-03-23T11:25:29;6.20;77.30
46898;DHT22;32646;50.958;6.258;2024-03-23T11:27:56;6.30;81.30
46898;DHT22;32646;50.958;6.258;2024-03-23T11:30:27;7.50;95.50
46898;DHT22;32646;50.958;6.258;2024-03-23T11:32:54;8.90;83.80
46898;DHT22;32646;50.958;6.258;2024-03-23T11:35:34;9.70;56.20
46898;DHT22;32646;50.958;6.258;2024-03-23T11:40:28;11.20;38.90
46898;DHT22;32646;50.958;6.258;2024-03-23T11:43:23;11.30;21.40
46898;DHT22;32646;50.958;6.258;2024-03-23T11:45:51;10.70;18.90
46898;DHT22;32646;50.958;6.258;2024-03-23T11:48:19;8.30;21.60
46898;DHT22;32646;50.958;6.258;2024-03-23T11:50:46;7.20;30.20
46898;DHT22;32646;50.958;6.258;2024-03-23T11:53:20;6.50;35.40
46898;DHT22;32646;50.958;6.258;2024-03-23T11:55:53;6.10;44.60
46898;DHT22;32646;50.958;6.258;2024-03-23T11:58:21;6.00;53.70
46898;DHT22;32646;50.958;6.258;2024-03-23T12:00:59;5.40;60.40
46898;DHT22;32646;50.958;6.258;2024-03-23T12:03:26;5.50;66.00
46898;DHT22;32646;50.958;6.258;2024-03-23T12:05:53;5.50;67.90
46898;DHT22;32646;50.958;6.258;2024-03-23T12:08:33;5.50;66.90
46898;DHT22;32646;50.958;6.258;2024-03-23T12:11:13;5.50;66.10
46898;DHT22;32646;50.958;6.258;2024-03-23T12:13:40;5.90;58.80
46898;DHT22;32646;50.958;6.258;2024-03-23T12:16:14;6.60;54.00
46898;DHT22;32646;50.958;6.258;2024-03-23T12:18:41;7.10;46.00
46898;DHT22;32646;50.958;6.258;2024-03-23T12:21:07;8.00;47.20
46898;DHT22;32646;50.958;6.258;2024-03-23T12:23:34;8.70;28.90
46898;DHT22;32646;50.958;6.258;2024-03-23T12:25:59;9.30;28.80
46898;DHT22;32646;50.958;6.258;2024-03-23T12:28:25;9.70;26.40
46898;DHT22;32646;50.958;6.258;2024-03-23T12:30:51;9.80;22.10
46898;DHT22;32646;50.958;6.258;2024-03-23T12:33:17;10.00;19.50
46898;DHT22;32646;50.958;6.258;2024-03-23T12:35:42;10.20;23.40
46898;DHT22;32646;50.958;6.258;2024-03-23T12:38:08;10.60;17.90
46898;DHT22;32646;50.958;6.258;2024-03-23T12:40:34;10.60;18.50
46898;DHT22;32646;50.958;6.258;2024-03-23T12:42:59;10.80;21.70
46898;DHT22;32646;50.958;6.258;2024-03-23T12:45:25;10.80;18.90
46898;DHT22;32646;50.958;6.258;2024-03-23T12:47:51;10.30;17.90
46898;DHT22;32646;50.958;6.258;2024-03-23T12:50:16;9.40;19.90
46898;DHT22;32646;50.958;6.258;2024-03-23T12:52:42;10.20;20.90
46898;DHT22;32646;50.958;6.258;2024-03-23T12:55:08;11.00;16.00
46898;DHT22;32646;50.958;6.258;2024-03-23T12:57:34;11.10;15.30
46898;DHT22;32646;50.958;6.258;2024-03-23T13:00:00;11.30;12.70
46898;DHT22;32646;50.958;6.258;2024-03-23T13:02:25;11.10;12.60
46898;DHT22;32646;50.958;6.258;2024-03-23T13:04:52;11.00;18.50
46898;DHT22;32646;50.958;6.258;2024-03-23T13:07:19;10.80;16.10
46898;DHT22;32646;50.958;6.258;2024-03-23T13:09:45;9.50;20.60
46898;DHT22;32646;50.958;6.258;2024-03-23T13:12:11;8.20;26.70
46898;DHT22;32646;50.958;6.258;2024-03-23T13:14:37;7.60;26.60
46898;DHT22;32646;50.958;6.258;2024-03-23T13:17:03;7.50;28.90
46898;DHT22;32646;50.958;6.258;2024-03-23T13:19:28;7.40;30.40
46898;DHT22;32646;50.958;6.258;2024-03-23T13:21:54;7.20;26.40
46898;DHT22;32646;50.958;6.258;2024-03-23T13:24:27;7.30;23.70
46898;DHT22;32646;50.958;6.258;2024-03-23T13:26:54;8.20;22.70
46898;DHT22;32646;50.958;6.258;2024-03-23T13:29:20;9.70;25.80
46898;DHT22;32646;50.958;6.258;2024-03-23T13:31:46;10.60;14.10
46898;DHT22;32646;50.958;6.258;2024-03-23T13:34:12;11.00;9.70
46898;DHT22;32646;50.958;6.258;2024-03-23T13:36:45;11.00;7.30
46898;DHT22;32646;50.958;6.258;2024-03-23T13:39:12;11.10;11.10
46898;DHT22;32646;50.958;6.258;2024-03-23T13:41:42;11.60;6.40
46898;DHT22;32646;50.958;6.258;2024-03-23T13:44:09;11.70;6.80
46898;DHT22;32646;50.958;6.258;2024-03-23T13:46:35;12.10;3.90
46898;DHT22;32646;50.958;6.258;2024-03-23T13:49:01;12.40;4.50
46898;DHT22;32646;50.958;6.258;2024-03-23T13:51:27;12.60;3.60
46898;DHT22;32646;50.958;6.258;2024-03-23T13:53:53;12.80;4.90
46898;DHT22;32646;50.958;6.258;2024-03-23T13:56:19;11.40;5.00
46898;DHT22;32646;50.958;6.258;2024-03-23T13:58:45;10.20;6.10
46898;DHT22;32646;50.958;6.258;2024-03-23T14:01:10;9.00;11.70
46898;DHT22;32646;50.958;6.258;2024-03-23T14:03:36;8.60;12.80
46898;DHT22;32646;50.958;6.258;2024-03-23T14:06:02;8.40;17.10
46898;DHT22;32646;50.958;6.258;2024-03-23T14:08:27;8.00;21.50
46898;DHT22;32646;50.958;6.258;2024-03-23T14:10:53;7.10;26.00
46898;DHT22;32646;50.958;6.258;2024-03-23T14:13:19;6.10;34.60
46898;DHT22;32646;50.958;6.258;2024-03-23T14:15:44;5.70;44.90
46898;DHT22;32646;50.958;6.258;2024-03-23T14:18:10;5.50;55.20
46898;DHT22;32646;50.958;6.258;2024-03-23T14:20:36;5.30;63.00
46898;DHT22;32646;50.958;6.258;2024-03-23T14:23:01;5.30;71.20
46898;DHT22;32646;50.958;6.258;2024-03-23T14:25:28;5.40;76.00
46898;DHT22;32646;50.958;6.258;2024-03-23T14:27:54;5.60;75.80
46898;DHT22;32646;50.958;6.258;2024-03-23T14:30:19;5.90;83.20
46898;DHT22;32646;50.958;6.258;2024-03-23T14:32:45;6.00;85.40
46898;DHT22;32646;50.958;6.258;2024-03-23T14:35:11;6.40;90.90
46898;DHT22;32646;50.958;6.258;2024-03-23T14:37:37;6.60;86.20
46898;DHT22;32646;50.958;6.258;2024-03-23T14:40:03;6.60;78.40
46898;DHT22;32646;50.958;6.258;2024-03-23T14:42:29;6.50;83.80
46898;DHT22;32646;50.958;6.258;2024-03-23T14:44:55;6.30;80.80
46898;DHT22;32646;50.958;6.258;2024-03-23T14:47:20;6.30;82.50
46898;DHT22;32646;50.958;6.258;2024-03-23T14:49:46;7.00;87.00
46898;DHT22;32646;50.958;6.258;2024-03-23T14:52:15;7.70;73.60
46898;DHT22;32646;50.958;6.258;2024-03-23T14:54:40;8.40;55.80
46898;DHT22;32646;50.958;6.258;2024-03-23T14:57:06;8.80;37.80
46898;DHT22;32646;50.958;6.258;2024-03-23T14:59:31;9.20;33.40
46898;DHT22;32646;50.958;6.258;2024-03-23T15:01:57;9.30;25.40
46898;DHT22;32646;50.958;6.258;2024-03-23T15:04:23;9.30;22.20
46898;DHT22;32646;50.958;6.258;2024-03-23T15:06:49;8.70;22.00
46898;DHT22;32646;50.958;6.258;2024-03-23T15:09:14;8.20;21.40
46898;DHT22;32646;50.958;6.258;2024-03-23T15:11:40;7.90;24.40
46898;DHT22;32646;50.958;6.258;2024-03-23T15:14:06;7.70;24.70
46898;DHT22;32646;50.958;6.258;2024-03-23T15:16:31;7.50;24.90
46898;DHT22;32646;50.958;6.258;2024-03-23T15:18:58;7.50;25.90
46898;DHT22;32646;50.958;6.258;2024-03-23T15:21:23;7.30;30.90
46898;DHT22;32646;50.958;6.258;2024-03-23T15:23:49;7.20;30.30
46898;DHT22;32646;50.958;6.258;2024-03-23T15:26:15;7.00;37.90
46898;DHT22;32646;50.958;6.258;2024-03-23T15:28:40;6.60;44.80
46898;DHT22;32646;50.958;6.258;2024-03-23T15:31:09;6.10;49.80
46898;DHT22;32646;50.958;6.258;2024-03-23T15:33:35;5.90;67.60
46898;DHT22;32646;50.958;6.258;2024-03-23T15:36:02;5.80;73.20
46898;DHT22;32646;50.958;6.258;2024-03-23T15:38:28;5.80;82.70
46898;DHT22;32646;50.958;6.258;2024-03-23T15:40:54;5.70;84.60
46898;DHT22;32646;50.958;6.258;2024-03-23T15:43:19;5.60;86.10
46898;DHT22;32646;50.958;6.258;2024-03-23T15:45:54;5.70;90.10
46898;DHT22;32646;50.958;6.258;2024-03-23T15:48:20;6.50;98.70
46898;DHT22;32646;50.958;6.258;2024-03-23T15:50:56;6.80;96.50
46898;DHT22;32646;50.958;6.258;2024-03-23T15:53:23;6.70;89.70
46898;DHT22;32646;50.958;6.258;2024-03-23T15:58:25;6.10;81.40
46898;DHT22;32646;50.958;6.258;2024-03-23T16:01:04;6.40;93.50
46898;DHT22;32646;50.958;6.258;2024-03-23T16:03:30;6.50;90.50
46898;DHT22;32646;50.958;6.258;2024-03-23T16:05:58;6.50;85.10
46898;DHT22;32646;50.958;6.258;2024-03-23T16:08:24;6.50;75.30
46898;DHT22;32646;50.958;6.258;2024-03-23T16:10:51;6.20;70.90
46898;DHT22;32646;50.958;6.258;2024-03-23T16:13:17;6.10;83.30
46898;DHT22;32646;50.958;6.258;2024-03-23T16:15:43;6.10;87.30
46898;DHT22;32646;50.958;6.258;2024-03-23T16:18:08;6.10;84.50
46898;DHT22;32646;50.958;6.258;2024-03-23T16:20:34;6.10;84.80
46898;DHT22;32646;50.958;6.258;2024-03-23T16:23:00;6.10;84.00
46898;DHT22;32646;50.958;6.258;2024-03-23T16:25:26;6.10;83.50
46898;DHT22;32646;50.958;6.258;2024-03-23T16:27:52;6.00;84.90
46898;DHT22;32646;50.958;6.258;2024-03-23T16:30:18;6.00;86.60
46898;DHT22;32646;50.958;6.258;2024-03-23T16:32:44;6.00;86.80
46898;DHT22;32646;50.958;6.258;2024-03-23T16:35:12;6.00;90.00
46898;DHT22;32646;50.958;6.258;2024-03-23T16:37:38;5.90;89.40
46898;DHT22;32646;50.958;6.258;2024-03-23T16:40:04;5.90;89.00
46898;DHT22;32646;50.958;6.258;2024-03-23T16:42:30;5.80;90.30
46898;DHT22;32646;50.958;6.258;2024-03-23T16:44:55;5.80;90.90
46898;DHT22;32646;50.958;6.258;2024-03-23T16:47:21;5.80;92.30
46898;DHT22;32646;50.958;6.258;2024-03-23T16:49:47;5.80;94.10